Atlantic - Newfoundland: Past 24 Hour Conditions

 

Natashquan Airport

03:00 AM EDT 25 March 2017
Disclaimer

This table is a summary of hourly weather conditions for the past 24 hours.
Please note that these observations might not always be representative of weather conditions over their associated marine area.

Date / Time
(EDT)
Wind(knots) Conditions Visibility(km) Pressure(kPa) Air tempC) Relative humidity(%) Dew pointC) Wind Chill
25 March 2017
3:00 SW 10 Light Snow 5 101.0 -3 94 -4 -8
2:00 SW 12 Light Snow 15 101.1 -3 87 -5 -9
1:00 SW 11 gust 19 Light Snow 16 101.1 -3 88 -4 -9
0:00 SW 14 gust 20 Cloudy 16 101.2 -3 84 -5 -10
24 March 2017
23:00 SSW 14 gust 21 Cloudy 16 101.3 -2 76 -6 -9
22:00 SSW 15 gust 23 Light Snow 16 101.4 -3 80 -6 -10
21:00 SSW 13 gust 21 Light Snow 16 101.5 -3 73 -8 -10
20:00 SSW 10 gust 16 Cloudy 16 101.6 -4 71 -9 -10
19:00 SSW 11 gust 19 Cloudy 16 101.6 -5 66 -10 -11
18:00 SSE 4 Mostly Cloudy 16 101.7 -7 65 -12 -11
17:00 S 5 Sunny 16 101.7 -6 57 -13 -10
16:00 SSW 6 Mainly Sunny 16 101.8 -6 59 -13 -11
15:00 SW 9 Sunny 16 101.9 -6 57 -14 -13
14:00 WSW 11 Sunny 16 102.0 -7 53 -15 -14
13:00 SW 12 Sunny 16 102.2 -7 60 -14 -15
12:00 WSW 7 Sunny 16 102.3 -8 64 -14 -14
11:00 WSW 10 Sunny 16 102.4 -9 58 -16 -17
10:00 WNW 5 Sunny 16 102.4 -11 51 -19 -16
9:00 NW 8 Sunny 16 102.5 -12 51 -20 -20
8:00 WNW 11 Sunny 16 102.5 -14 60 -20 -23
7:00 WNW 6 Sunny 16 102.5 -17 69 -22 -24
6:00 NW 5 Clear 16 102.4 -20 72 -23 -26
5:00 W 8 Clear 16 102.3 -18 67 -22 -26
4:00 WNW 7 Clear 16 102.3 -17 61 -23 -25
3:00 WNW 8 Clear 16 102.2 -17 60 -23 -25

Zoom-in to make a selection

Map of Atlantic - Newfoundland marine weather areas Southwestern Grand Banks - 44138 Banquereau - 44139 Tail of the Bank - 44140 Nickerson Bank - 44251 Northeast Burgeo Bank - 44255 Blanc-Sablon Airport Cap Whittle Chevery Natashquan Airport Heath Point Miscou Island Grand Étang Ingonish Beach North Mountain St.Paul Island J.A. Douglas McCurdy Sydney Airport Charlottetown Airport East Point North Cape Argentia Bonavista Burgeo Cape Race Corner Brook Daniel's Harbour Englee Ferolle Point La Scie Port aux Basques Rocky Harbour Sagona Island St. Anthony Airport St. John's Int'l Airport St. Lawrence Stephenville Airport Twillingate Winterland Wreckhouse Cartwright Airport Mary's Harbour Grates Cove Pool's Island Marticot Island Long Pond Eskasoni (First Nations) Îles de la Madeleine Airport
Legend:
buoy Buoy
land station Land Station

Atlantic - Newfoundland Area

Another Region

What we are doing

Date modified: